sensor_id;sensor_type;location;lat;lon;timestamp;P1;durP1;ratioP1;P2;durP2;ratioP2
3453;SDS011;1741;51.294;8.608;2024-03-02T00:00:40;8.00;;;7.30;;
3453;SDS011;1741;51.294;8.608;2024-03-02T00:03:08;9.00;;;8.30;;
3453;SDS011;1741;51.294;8.608;2024-03-02T00:05:37;8.03;;;7.53;;
3453;SDS011;1741;51.294;8.608;2024-03-02T00:08:05;8.33;;;7.57;;
3453;SDS011;1741;51.294;8.608;2024-03-02T00:10:38;8.87;;;7.93;;
3453;SDS011;1741;51.294;8.608;2024-03-02T00:13:07;8.00;;;7.40;;
3453;SDS011;1741;51.294;8.608;2024-03-02T00:18:32;8.70;;;8.00;;
3453;SDS011;1741;51.294;8.608;2024-03-02T00:21:01;8.20;;;7.60;;
3453;SDS011;1741;51.294;8.608;2024-03-02T00:23:30;8.33;;;7.73;;
3453;SDS011;1741;51.294;8.608;2024-03-02T00:25:59;8.40;;;7.77;;
3453;SDS011;1741;51.294;8.608;2024-03-02T00:28:29;8.30;;;7.60;;
3453;SDS011;1741;51.294;8.608;2024-03-02T00:31:09;9.10;;;8.30;;
3453;SDS011;1741;51.294;8.608;2024-03-02T00:33:44;8.73;;;7.83;;
3453;SDS011;1741;51.294;8.608;2024-03-02T00:36:14;9.03;;;8.23;;
3453;SDS011;1741;51.294;8.608;2024-03-02T00:38:47;9.43;;;8.57;;
3453;SDS011;1741;51.294;8.608;2024-03-02T00:41:30;8.90;;;8.10;;
3453;SDS011;1741;51.294;8.608;2024-03-02T00:43:58;9.37;;;8.47;;
3453;SDS011;1741;51.294;8.608;2024-03-02T00:46:33;9.07;;;8.30;;
3453;SDS011;1741;51.294;8.608;2024-03-02T00:49:11;8.97;;;8.10;;
3453;SDS011;1741;51.294;8.608;2024-03-02T00:51:57;9.37;;;8.57;;
3453;SDS011;1741;51.294;8.608;2024-03-02T00:54:26;9.37;;;8.50;;
3453;SDS011;1741;51.294;8.608;2024-03-02T00:56:55;10.13;;;8.93;;
3453;SDS011;1741;51.294;8.608;2024-03-02T00:59:23;11.63;;;9.33;;
3453;SDS011;1741;51.294;8.608;2024-03-02T01:01:50;9.87;;;8.70;;
3453;SDS011;1741;51.294;8.608;2024-03-02T01:04:18;11.20;;;9.20;;
3453;SDS011;1741;51.294;8.608;2024-03-02T01:06:45;9.50;;;8.50;;
3453;SDS011;1741;51.294;8.608;2024-03-02T01:09:13;9.77;;;8.77;;
3453;SDS011;1741;51.294;8.608;2024-03-02T01:11:41;10.43;;;9.40;;
3453;SDS011;1741;51.294;8.608;2024-03-02T01:14:10;10.23;;;9.23;;
3453;SDS011;1741;51.294;8.608;2024-03-02T01:16:37;9.50;;;8.53;;
3453;SDS011;1741;51.294;8.608;2024-03-02T01:19:06;12.60;;;9.27;;
3453;SDS011;1741;51.294;8.608;2024-03-02T01:21:34;10.67;;;9.47;;
3453;SDS011;1741;51.294;8.608;2024-03-02T01:24:01;10.50;;;9.50;;
3453;SDS011;1741;51.294;8.608;2024-03-02T01:26:28;12.00;;;10.07;;
3453;SDS011;1741;51.294;8.608;2024-03-02T01:28:55;9.10;;;8.27;;
3453;SDS011;1741;51.294;8.608;2024-03-02T01:31:22;10.83;;;8.93;;
3453;SDS011;1741;51.294;8.608;2024-03-02T01:33:50;10.07;;;9.17;;
3453;SDS011;1741;51.294;8.608;2024-03-02T01:36:20;11.40;;;9.40;;
3453;SDS011;1741;51.294;8.608;2024-03-02T01:38:47;14.67;;;9.20;;
3453;SDS011;1741;51.294;8.608;2024-03-02T01:41:17;11.10;;;9.67;;
3453;SDS011;1741;51.294;8.608;2024-03-02T01:43:45;9.93;;;9.13;;
3453;SDS011;1741;51.294;8.608;2024-03-02T01:46:14;10.00;;;9.10;;
3453;SDS011;1741;51.294;8.608;2024-03-02T01:48:41;12.37;;;8.53;;
3453;SDS011;1741;51.294;8.608;2024-03-02T01:51:08;11.90;;;9.27;;
3453;SDS011;1741;51.294;8.608;2024-03-02T01:53:36;10.70;;;9.60;;
3453;SDS011;1741;51.294;8.608;2024-03-02T01:56:04;12.77;;;10.63;;
3453;SDS011;1741;51.294;8.608;2024-03-02T01:58:31;9.50;;;8.50;;
3453;SDS011;1741;51.294;8.608;2024-03-02T02:00:58;10.07;;;8.63;;
3453;SDS011;1741;51.294;8.608;2024-03-02T02:03:26;10.10;;;9.10;;
3453;SDS011;1741;51.294;8.608;2024-03-02T02:05:53;10.20;;;9.30;;
3453;SDS011;1741;51.294;8.608;2024-03-02T02:08:21;17.03;;;10.10;;
3453;SDS011;1741;51.294;8.608;2024-03-02T02:10:48;14.20;;;10.20;;
3453;SDS011;1741;51.294;8.608;2024-03-02T02:13:16;10.03;;;9.07;;
3453;SDS011;1741;51.294;8.608;2024-03-02T02:15:44;11.17;;;9.93;;
3453;SDS011;1741;51.294;8.608;2024-03-02T02:18:11;12.63;;;10.57;;
3453;SDS011;1741;51.294;8.608;2024-03-02T02:20:39;13.97;;;10.30;;
3453;SDS011;1741;51.294;8.608;2024-03-02T02:23:06;12.70;;;10.90;;
3453;SDS011;1741;51.294;8.608;2024-03-02T02:25:34;16.60;;;11.73;;
3453;SDS011;1741;51.294;8.608;2024-03-02T02:28:01;14.77;;;11.40;;
3453;SDS011;1741;51.294;8.608;2024-03-02T02:30:30;13.63;;;10.47;;
3453;SDS011;1741;51.294;8.608;2024-03-02T02:33:00;13.70;;;11.70;;
3453;SDS011;1741;51.294;8.608;2024-03-02T02:35:27;11.80;;;10.07;;
3453;SDS011;1741;51.294;8.608;2024-03-02T02:37:56;12.03;;;10.47;;
3453;SDS011;1741;51.294;8.608;2024-03-02T02:40:25;17.10;;;11.03;;
3453;SDS011;1741;51.294;8.608;2024-03-02T02:42:52;12.30;;;10.27;;
3453;SDS011;1741;51.294;8.608;2024-03-02T02:45:19;13.97;;;10.63;;
3453;SDS011;1741;51.294;8.608;2024-03-02T02:47:47;15.33;;;10.90;;
3453;SDS011;1741;51.294;8.608;2024-03-02T02:50:14;13.80;;;10.37;;
3453;SDS011;1741;51.294;8.608;2024-03-02T02:52:41;12.93;;;10.47;;
3453;SDS011;1741;51.294;8.608;2024-03-02T02:55:10;10.23;;;9.23;;
3453;SDS011;1741;51.294;8.608;2024-03-02T02:57:41;10.47;;;9.43;;
3453;SDS011;1741;51.294;8.608;2024-03-02T03:00:14;12.03;;;10.43;;
3453;SDS011;1741;51.294;8.608;2024-03-02T03:02:45;9.80;;;8.40;;
3453;SDS011;1741;51.294;8.608;2024-03-02T03:05:16;13.37;;;9.30;;
3453;SDS011;1741;51.294;8.608;2024-03-02T03:07:44;10.93;;;8.80;;
3453;SDS011;1741;51.294;8.608;2024-03-02T03:10:12;9.60;;;8.80;;
3453;SDS011;1741;51.294;8.608;2024-03-02T03:12:41;11.60;;;10.40;;
3453;SDS011;1741;51.294;8.608;2024-03-02T03:15:10;11.03;;;9.93;;
3453;SDS011;1741;51.294;8.608;2024-03-02T03:17:40;10.53;;;9.63;;
3453;SDS011;1741;51.294;8.608;2024-03-02T03:20:08;9.53;;;8.73;;
3453;SDS011;1741;51.294;8.608;2024-03-02T03:22:38;9.77;;;8.90;;
3453;SDS011;1741;51.294;8.608;2024-03-02T03:25:07;10.07;;;9.10;;
3453;SDS011;1741;51.294;8.608;2024-03-02T03:27:37;8.50;;;7.87;;
3453;SDS011;1741;51.294;8.608;2024-03-02T03:30:04;13.30;;;8.00;;
3453;SDS011;1741;51.294;8.608;2024-03-02T03:32:33;10.93;;;10.03;;
3453;SDS011;1741;51.294;8.608;2024-03-02T03:35:03;10.83;;;9.37;;
3453;SDS011;1741;51.294;8.608;2024-03-02T03:37:31;9.47;;;8.83;;
3453;SDS011;1741;51.294;8.608;2024-03-02T03:40:01;9.93;;;9.13;;
3453;SDS011;1741;51.294;8.608;2024-03-02T03:42:29;9.10;;;8.50;;
3453;SDS011;1741;51.294;8.608;2024-03-02T03:44:56;10.50;;;9.03;;
3453;SDS011;1741;51.294;8.608;2024-03-02T03:47:23;11.27;;;10.37;;
3453;SDS011;1741;51.294;8.608;2024-03-02T03:49:51;9.97;;;9.23;;
3453;SDS011;1741;51.294;8.608;2024-03-02T03:52:20;15.13;;;9.73;;
3453;SDS011;1741;51.294;8.608;2024-03-02T03:54:48;9.90;;;9.30;;
3453;SDS011;1741;51.294;8.608;2024-03-02T03:57:16;9.87;;;9.07;;
3453;SDS011;1741;51.294;8.608;2024-03-02T03:59:43;9.10;;;8.50;;
3453;SDS011;1741;51.294;8.608;2024-03-02T04:02:11;9.13;;;8.63;;
3453;SDS011;1741;51.294;8.608;2024-03-02T04:04:39;9.23;;;8.80;;
3453;SDS011;1741;51.294;8.608;2024-03-02T04:07:08;9.07;;;8.67;;
3453;SDS011;1741;51.294;8.608;2024-03-02T04:09:35;10.20;;;9.50;;
3453;SDS011;1741;51.294;8.608;2024-03-02T04:12:02;10.67;;;9.90;;
3453;SDS011;1741;51.294;8.608;2024-03-02T04:14:30;9.40;;;8.90;;
3453;SDS011;1741;51.294;8.608;2024-03-02T04:16:59;9.90;;;9.07;;
3453;SDS011;1741;51.294;8.608;2024-03-02T04:19:27;9.77;;;9.27;;
3453;SDS011;1741;51.294;8.608;2024-03-02T04:21:54;12.87;;;9.53;;
3453;SDS011;1741;51.294;8.608;2024-03-02T04:24:21;10.53;;;9.83;;
3453;SDS011;1741;51.294;8.608;2024-03-02T04:26:48;10.73;;;10.10;;
3453;SDS011;1741;51.294;8.608;2024-03-02T04:29:15;10.60;;;9.90;;
3453;SDS011;1741;51.294;8.608;2024-03-02T04:31:42;11.50;;;9.83;;
3453;SDS011;1741;51.294;8.608;2024-03-02T04:34:10;10.00;;;9.50;;
3453;SDS011;1741;51.294;8.608;2024-03-02T04:36:37;10.50;;;9.90;;
3453;SDS011;1741;51.294;8.608;2024-03-02T04:39:04;10.53;;;9.63;;
3453;SDS011;1741;51.294;8.608;2024-03-02T04:41:31;10.13;;;9.53;;
3453;SDS011;1741;51.294;8.608;2024-03-02T04:43:58;10.33;;;9.60;;
3453;SDS011;1741;51.294;8.608;2024-03-02T04:46:25;10.97;;;10.00;;
3453;SDS011;1741;51.294;8.608;2024-03-02T04:48:53;10.47;;;9.80;;
3453;SDS011;1741;51.294;8.608;2024-03-02T04:51:24;10.80;;;10.10;;
3453;SDS011;1741;51.294;8.608;2024-03-02T04:53:51;10.00;;;9.30;;
3453;SDS011;1741;51.294;8.608;2024-03-02T04:56:18;10.67;;;9.97;;
3453;SDS011;1741;51.294;8.608;2024-03-02T04:58:58;10.30;;;9.60;;
3453;SDS011;1741;51.294;8.608;2024-03-02T05:01:26;10.43;;;9.63;;
3453;SDS011;1741;51.294;8.608;2024-03-02T05:03:53;9.87;;;9.27;;
3453;SDS011;1741;51.294;8.608;2024-03-02T05:06:20;11.57;;;10.73;;
3453;SDS011;1741;51.294;8.608;2024-03-02T05:08:47;10.80;;;10.10;;
3453;SDS011;1741;51.294;8.608;2024-03-02T05:11:15;13.50;;;10.50;;
3453;SDS011;1741;51.294;8.608;2024-03-02T05:14:01;11.10;;;10.10;;
3453;SDS011;1741;51.294;8.608;2024-03-02T05:16:28;10.80;;;9.90;;
3453;SDS011;1741;51.294;8.608;2024-03-02T05:18:55;10.00;;;9.20;;
3453;SDS011;1741;51.294;8.608;2024-03-02T05:21:23;10.20;;;9.47;;
3453;SDS011;1741;51.294;8.608;2024-03-02T05:23:50;10.27;;;9.30;;
3453;SDS011;1741;51.294;8.608;2024-03-02T05:26:17;9.40;;;8.60;;
3453;SDS011;1741;51.294;8.608;2024-03-02T05:28:44;10.80;;;9.87;;
3453;SDS011;1741;51.294;8.608;2024-03-02T05:31:11;10.30;;;9.27;;
3453;SDS011;1741;51.294;8.608;2024-03-02T05:33:42;10.43;;;9.50;;
3453;SDS011;1741;51.294;8.608;2024-03-02T05:36:09;11.17;;;10.13;;
3453;SDS011;1741;51.294;8.608;2024-03-02T05:38:37;10.70;;;9.80;;
3453;SDS011;1741;51.294;8.608;2024-03-02T05:41:06;11.37;;;10.37;;
3453;SDS011;1741;51.294;8.608;2024-03-02T05:43:34;12.23;;;11.07;;
3453;SDS011;1741;51.294;8.608;2024-03-02T05:46:01;10.73;;;9.83;;
3453;SDS011;1741;51.294;8.608;2024-03-02T05:48:28;10.70;;;9.67;;
3453;SDS011;1741;51.294;8.608;2024-03-02T05:50:56;10.43;;;9.53;;
3453;SDS011;1741;51.294;8.608;2024-03-02T05:53:23;10.53;;;9.43;;
3453;SDS011;1741;51.294;8.608;2024-03-02T05:55:52;11.43;;;10.20;;
3453;SDS011;1741;51.294;8.608;2024-03-02T05:58:23;14.27;;;10.13;;
3453;SDS011;1741;51.294;8.608;2024-03-02T06:00:50;10.60;;;9.60;;
3453;SDS011;1741;51.294;8.608;2024-03-02T06:03:18;11.27;;;10.10;;
3453;SDS011;1741;51.294;8.608;2024-03-02T06:05:47;11.20;;;10.30;;
3453;SDS011;1741;51.294;8.608;2024-03-02T06:08:15;12.33;;;11.03;;
3453;SDS011;1741;51.294;8.608;2024-03-02T06:10:44;10.53;;;9.53;;
3453;SDS011;1741;51.294;8.608;2024-03-02T06:13:12;10.20;;;9.27;;
3453;SDS011;1741;51.294;8.608;2024-03-02T06:15:39;11.47;;;10.27;;
3453;SDS011;1741;51.294;8.608;2024-03-02T06:18:06;11.23;;;10.10;;
3453;SDS011;1741;51.294;8.608;2024-03-02T06:20:35;11.80;;;10.60;;
3453;SDS011;1741;51.294;8.608;2024-03-02T06:23:04;11.90;;;9.67;;
3453;SDS011;1741;51.294;8.608;2024-03-02T06:25:31;10.93;;;9.93;;
3453;SDS011;1741;51.294;8.608;2024-03-02T06:27:58;11.50;;;10.40;;
3453;SDS011;1741;51.294;8.608;2024-03-02T06:30:26;10.30;;;9.40;;
3453;SDS011;1741;51.294;8.608;2024-03-02T06:32:54;10.90;;;9.77;;
3453;SDS011;1741;51.294;8.608;2024-03-02T06:35:21;11.97;;;10.73;;
3453;SDS011;1741;51.294;8.608;2024-03-02T06:37:49;10.27;;;9.27;;
3453;SDS011;1741;51.294;8.608;2024-03-02T06:40:17;11.60;;;10.03;;
3453;SDS011;1741;51.294;8.608;2024-03-02T06:42:45;12.23;;;10.90;;
3453;SDS011;1741;51.294;8.608;2024-03-02T06:45:12;11.63;;;10.43;;
3453;SDS011;1741;51.294;8.608;2024-03-02T06:47:39;10.50;;;9.50;;
3453;SDS011;1741;51.294;8.608;2024-03-02T06:50:07;12.30;;;10.50;;
3453;SDS011;1741;51.294;8.608;2024-03-02T06:52:35;12.10;;;10.90;;
3453;SDS011;1741;51.294;8.608;2024-03-02T06:55:04;14.53;;;10.90;;
3453;SDS011;1741;51.294;8.608;2024-03-02T06:57:33;11.40;;;10.30;;
3453;SDS011;1741;51.294;8.608;2024-03-02T07:00:04;13.33;;;10.87;;
3453;SDS011;1741;51.294;8.608;2024-03-02T07:02:35;10.03;;;9.00;;
3453;SDS011;1741;51.294;8.608;2024-03-02T07:05:03;9.90;;;8.90;;
3453;SDS011;1741;51.294;8.608;2024-03-02T07:07:30;10.80;;;9.60;;
3453;SDS011;1741;51.294;8.608;2024-03-02T07:09:58;16.23;;;11.60;;
3453;SDS011;1741;51.294;8.608;2024-03-02T07:12:26;14.27;;;10.90;;
3453;SDS011;1741;51.294;8.608;2024-03-02T07:14:53;10.80;;;9.73;;
3453;SDS011;1741;51.294;8.608;2024-03-02T07:17:36;13.87;;;10.60;;
3453;SDS011;1741;51.294;8.608;2024-03-02T07:20:04;13.53;;;10.70;;
3453;SDS011;1741;51.294;8.608;2024-03-02T07:22:34;11.97;;;9.47;;
3453;SDS011;1741;51.294;8.608;2024-03-02T07:25:10;9.97;;;9.07;;
3453;SDS011;1741;51.294;8.608;2024-03-02T07:27:40;9.97;;;8.10;;
3453;SDS011;1741;51.294;8.608;2024-03-02T07:30:09;10.70;;;8.50;;
3453;SDS011;1741;51.294;8.608;2024-03-02T07:32:41;8.87;;;7.83;;
3453;SDS011;1741;51.294;8.608;2024-03-02T07:35:12;10.73;;;8.80;;
3453;SDS011;1741;51.294;8.608;2024-03-02T07:37:43;10.70;;;8.83;;
3453;SDS011;1741;51.294;8.608;2024-03-02T07:40:10;10.43;;;9.07;;
3453;SDS011;1741;51.294;8.608;2024-03-02T07:42:38;11.90;;;7.77;;
3453;SDS011;1741;51.294;8.608;2024-03-02T07:45:10;11.40;;;7.93;;
3453;SDS011;1741;51.294;8.608;2024-03-02T07:47:37;10.13;;;8.47;;
3453;SDS011;1741;51.294;8.608;2024-03-02T07:50:06;10.27;;;8.70;;
3453;SDS011;1741;51.294;8.608;2024-03-02T07:52:34;10.67;;;8.20;;
3453;SDS011;1741;51.294;8.608;2024-03-02T07:55:01;10.80;;;8.77;;
3453;SDS011;1741;51.294;8.608;2024-03-02T07:57:28;11.97;;;8.23;;
3453;SDS011;1741;51.294;8.608;2024-03-02T07:59:55;11.03;;;7.23;;
3453;SDS011;1741;51.294;8.608;2024-03-02T08:02:23;8.80;;;7.90;;
3453;SDS011;1741;51.294;8.608;2024-03-02T08:04:50;11.47;;;7.73;;
3453;SDS011;1741;51.294;8.608;2024-03-02T08:07:17;10.63;;;8.87;;
3453;SDS011;1741;51.294;8.608;2024-03-02T08:09:46;12.47;;;7.30;;
3453;SDS011;1741;51.294;8.608;2024-03-02T08:12:13;8.60;;;7.97;;
3453;SDS011;1741;51.294;8.608;2024-03-02T08:14:41;8.50;;;7.70;;
3453;SDS011;1741;51.294;8.608;2024-03-02T08:17:08;8.70;;;7.77;;
3453;SDS011;1741;51.294;8.608;2024-03-02T08:19:36;8.13;;;7.40;;
3453;SDS011;1741;51.294;8.608;2024-03-02T08:22:04;8.73;;;8.03;;
3453;SDS011;1741;51.294;8.608;2024-03-02T08:24:32;9.13;;;8.40;;
3453;SDS011;1741;51.294;8.608;2024-03-02T08:26:59;8.47;;;7.87;;
3453;SDS011;1741;51.294;8.608;2024-03-02T08:29:26;8.80;;;8.00;;
3453;SDS011;1741;51.294;8.608;2024-03-02T08:31:54;8.43;;;7.83;;
3453;SDS011;1741;51.294;8.608;2024-03-02T08:34:21;8.00;;;7.40;;
3453;SDS011;1741;51.294;8.608;2024-03-02T08:36:48;8.80;;;8.20;;
3453;SDS011;1741;51.294;8.608;2024-03-02T08:39:15;10.53;;;8.30;;
3453;SDS011;1741;51.294;8.608;2024-03-02T08:41:47;8.57;;;7.63;;
3453;SDS011;1741;51.294;8.608;2024-03-02T08:44:14;8.33;;;7.73;;
3453;SDS011;1741;51.294;8.608;2024-03-02T08:46:43;8.90;;;8.23;;
3453;SDS011;1741;51.294;8.608;2024-03-02T08:49:10;9.40;;;8.73;;
3453;SDS011;1741;51.294;8.608;2024-03-02T08:51:39;9.43;;;8.70;;
3453;SDS011;1741;51.294;8.608;2024-03-02T08:54:06;8.73;;;8.03;;
3453;SDS011;1741;51.294;8.608;2024-03-02T08:56:33;9.20;;;8.40;;
3453;SDS011;1741;51.294;8.608;2024-03-02T08:59:01;10.37;;;9.37;;
3453;SDS011;1741;51.294;8.608;2024-03-02T09:01:29;10.97;;;10.03;;
3453;SDS011;1741;51.294;8.608;2024-03-02T09:03:56;11.80;;;10.60;;
3453;SDS011;1741;51.294;8.608;2024-03-02T09:06:24;9.20;;;8.40;;
3453;SDS011;1741;51.294;8.608;2024-03-02T09:08:51;9.50;;;8.60;;
3453;SDS011;1741;51.294;8.608;2024-03-02T09:11:20;9.43;;;8.73;;
3453;SDS011;1741;51.294;8.608;2024-03-02T09:13:48;10.03;;;9.13;;
3453;SDS011;1741;51.294;8.608;2024-03-02T09:16:15;10.40;;;9.50;;
3453;SDS011;1741;51.294;8.608;2024-03-02T09:18:43;9.77;;;9.07;;
3453;SDS011;1741;51.294;8.608;2024-03-02T09:21:11;10.67;;;9.77;;
3453;SDS011;1741;51.294;8.608;2024-03-02T09:23:38;10.57;;;9.63;;
3453;SDS011;1741;51.294;8.608;2024-03-02T09:26:07;11.13;;;10.23;;
3453;SDS011;1741;51.294;8.608;2024-03-02T09:28:34;10.53;;;9.60;;
3453;SDS011;1741;51.294;8.608;2024-03-02T09:31:01;11.33;;;10.17;;
3453;SDS011;1741;51.294;8.608;2024-03-02T09:33:29;9.67;;;8.87;;
3453;SDS011;1741;51.294;8.608;2024-03-02T09:35:57;13.63;;;9.20;;
3453;SDS011;1741;51.294;8.608;2024-03-02T09:38:24;10.37;;;9.57;;
3453;SDS011;1741;51.294;8.608;2024-03-02T09:40:53;10.77;;;9.70;;
3453;SDS011;1741;51.294;8.608;2024-03-02T09:43:22;10.43;;;9.67;;
3453;SDS011;1741;51.294;8.608;2024-03-02T09:45:51;10.40;;;9.50;;
3453;SDS011;1741;51.294;8.608;2024-03-02T09:48:21;10.17;;;9.47;;
3453;SDS011;1741;51.294;8.608;2024-03-02T09:50:48;10.87;;;9.97;;
3453;SDS011;1741;51.294;8.608;2024-03-02T09:53:19;9.90;;;9.20;;
3453;SDS011;1741;51.294;8.608;2024-03-02T09:55:47;13.10;;;9.40;;
3453;SDS011;1741;51.294;8.608;2024-03-02T09:58:14;11.90;;;10.50;;
3453;SDS011;1741;51.294;8.608;2024-03-02T10:00:41;10.37;;;9.57;;
3453;SDS011;1741;51.294;8.608;2024-03-02T10:03:13;10.10;;;9.40;;
3453;SDS011;1741;51.294;8.608;2024-03-02T10:05:40;9.67;;;8.97;;
3453;SDS011;1741;51.294;8.608;2024-03-02T10:08:07;10.33;;;9.63;;
3453;SDS011;1741;51.294;8.608;2024-03-02T10:10:41;10.40;;;9.40;;
3453;SDS011;1741;51.294;8.608;2024-03-02T10:13:13;10.13;;;9.43;;
3453;SDS011;1741;51.294;8.608;2024-03-02T10:15:42;11.53;;;10.57;;
3453;SDS011;1741;51.294;8.608;2024-03-02T10:18:10;11.47;;;10.37;;
3453;SDS011;1741;51.294;8.608;2024-03-02T10:20:42;11.20;;;10.40;;
3453;SDS011;1741;51.294;8.608;2024-03-02T10:23:10;10.70;;;10.00;;
3453;SDS011;1741;51.294;8.608;2024-03-02T10:25:41;11.20;;;10.50;;
3453;SDS011;1741;51.294;8.608;2024-03-02T10:28:23;11.13;;;10.30;;
3453;SDS011;1741;51.294;8.608;2024-03-02T10:30:51;12.93;;;11.63;;
3453;SDS011;1741;51.294;8.608;2024-03-02T10:33:20;10.60;;;9.87;;
3453;SDS011;1741;51.294;8.608;2024-03-02T10:35:48;10.73;;;10.03;;
3453;SDS011;1741;51.294;8.608;2024-03-02T10:38:17;10.93;;;10.03;;
3453;SDS011;1741;51.294;8.608;2024-03-02T10:40:47;11.53;;;10.73;;
3453;SDS011;1741;51.294;8.608;2024-03-02T10:43:17;11.17;;;10.20;;
3453;SDS011;1741;51.294;8.608;2024-03-02T10:45:47;10.30;;;9.60;;
3453;SDS011;1741;51.294;8.608;2024-03-02T10:48:18;12.00;;;11.13;;
3453;SDS011;1741;51.294;8.608;2024-03-02T10:50:45;13.07;;;12.10;;
3453;SDS011;1741;51.294;8.608;2024-03-02T10:53:17;11.57;;;10.83;;
3453;SDS011;1741;51.294;8.608;2024-03-02T10:55:45;12.97;;;12.17;;
3453;SDS011;1741;51.294;8.608;2024-03-02T10:58:19;13.80;;;13.00;;
3453;SDS011;1741;51.294;8.608;2024-03-02T11:00:47;15.23;;;14.13;;
3453;SDS011;1741;51.294;8.608;2024-03-02T11:03:14;17.30;;;16.10;;
3453;SDS011;1741;51.294;8.608;2024-03-02T11:05:45;15.00;;;14.00;;
3453;SDS011;1741;51.294;8.608;2024-03-02T11:08:16;15.20;;;14.17;;
3453;SDS011;1741;51.294;8.608;2024-03-02T11:10:52;18.00;;;16.63;;
3453;SDS011;1741;51.294;8.608;2024-03-02T11:13:32;17.17;;;15.97;;
3453;SDS011;1741;51.294;8.608;2024-03-02T11:16:17;17.83;;;16.63;;
3453;SDS011;1741;51.294;8.608;2024-03-02T11:18:48;17.40;;;16.20;;
3453;SDS011;1741;51.294;8.608;2024-03-02T11:21:17;19.47;;;18.00;;
3453;SDS011;1741;51.294;8.608;2024-03-02T11:23:45;20.43;;;18.60;;
3453;SDS011;1741;51.294;8.608;2024-03-02T11:26:21;19.53;;;18.03;;
3453;SDS011;1741;51.294;8.608;2024-03-02T11:28:50;19.50;;;18.20;;
3453;SDS011;1741;51.294;8.608;2024-03-02T11:31:19;19.77;;;18.57;;
3453;SDS011;1741;51.294;8.608;2024-03-02T11:33:47;20.10;;;18.53;;
3453;SDS011;1741;51.294;8.608;2024-03-02T11:36:15;20.80;;;19.40;;
3453;SDS011;1741;51.294;8.608;2024-03-02T11:38:45;20.60;;;19.00;;
3453;SDS011;1741;51.294;8.608;2024-03-02T11:41:15;20.87;;;19.57;;
3453;SDS011;1741;51.294;8.608;2024-03-02T11:43:42;21.27;;;19.60;;
3453;SDS011;1741;51.294;8.608;2024-03-02T11:46:11;20.00;;;18.50;;
3453;SDS011;1741;51.294;8.608;2024-03-02T11:48:41;19.90;;;18.47;;
3453;SDS011;1741;51.294;8.608;2024-03-02T11:51:08;19.73;;;18.33;;
3453;SDS011;1741;51.294;8.608;2024-03-02T11:53:35;19.50;;;17.93;;
3453;SDS011;1741;51.294;8.608;2024-03-02T11:56:06;18.83;;;17.60;;
3453;SDS011;1741;51.294;8.608;2024-03-02T11:58:40;19.30;;;17.20;;
3453;SDS011;1741;51.294;8.608;2024-03-02T12:01:08;23.13;;;17.53;;
3453;SDS011;1741;51.294;8.608;2024-03-02T12:03:36;17.90;;;16.60;;
3453;SDS011;1741;51.294;8.608;2024-03-02T12:06:04;19.00;;;17.27;;
3453;SDS011;1741;51.294;8.608;2024-03-02T12:08:34;17.93;;;16.53;;
3453;SDS011;1741;51.294;8.608;2024-03-02T12:11:01;17.23;;;16.13;;
3453;SDS011;1741;51.294;8.608;2024-03-02T12:13:30;17.63;;;16.63;;
3453;SDS011;1741;51.294;8.608;2024-03-02T12:15:58;18.57;;;16.83;;
3453;SDS011;1741;51.294;8.608;2024-03-02T12:18:26;16.60;;;15.50;;
3453;SDS011;1741;51.294;8.608;2024-03-02T12:20:53;16.93;;;15.93;;
3453;SDS011;1741;51.294;8.608;2024-03-02T12:23:26;17.97;;;16.67;;
3453;SDS011;1741;51.294;8.608;2024-03-02T12:25:55;18.47;;;17.17;;
3453;SDS011;1741;51.294;8.608;2024-03-02T12:28:24;19.53;;;17.93;;
3453;SDS011;1741;51.294;8.608;2024-03-02T12:30:51;17.73;;;16.30;;
3453;SDS011;1741;51.294;8.608;2024-03-02T12:33:19;18.60;;;17.50;;
3453;SDS011;1741;51.294;8.608;2024-03-02T12:35:50;18.50;;;17.50;;
3453;SDS011;1741;51.294;8.608;2024-03-02T12:38:18;19.60;;;18.40;;
3453;SDS011;1741;51.294;8.608;2024-03-02T12:40:47;18.73;;;17.70;;
3453;SDS011;1741;51.294;8.608;2024-03-02T12:43:16;18.33;;;17.23;;
3453;SDS011;1741;51.294;8.608;2024-03-02T12:45:45;19.67;;;18.50;;
3453;SDS011;1741;51.294;8.608;2024-03-02T12:48:13;20.20;;;18.80;;
3453;SDS011;1741;51.294;8.608;2024-03-02T12:50:42;19.10;;;17.80;;
3453;SDS011;1741;51.294;8.608;2024-03-02T12:53:16;19.87;;;18.67;;
3453;SDS011;1741;51.294;8.608;2024-03-02T12:55:43;20.50;;;18.80;;
3453;SDS011;1741;51.294;8.608;2024-03-02T12:58:21;18.67;;;17.57;;
3453;SDS011;1741;51.294;8.608;2024-03-02T13:00:49;19.67;;;18.57;;
3453;SDS011;1741;51.294;8.608;2024-03-02T13:03:20;21.30;;;19.90;;
3453;SDS011;1741;51.294;8.608;2024-03-02T13:05:50;21.50;;;20.00;;
3453;SDS011;1741;51.294;8.608;2024-03-02T13:08:17;22.00;;;20.60;;
3453;SDS011;1741;51.294;8.608;2024-03-02T13:10:45;22.63;;;21.13;;
3453;SDS011;1741;51.294;8.608;2024-03-02T13:13:12;23.33;;;21.63;;
3453;SDS011;1741;51.294;8.608;2024-03-02T13:15:39;22.57;;;21.17;;
3453;SDS011;1741;51.294;8.608;2024-03-02T13:18:07;22.80;;;21.30;;
3453;SDS011;1741;51.294;8.608;2024-03-02T13:20:34;24.17;;;22.50;;
3453;SDS011;1741;51.294;8.608;2024-03-02T13:23:02;24.63;;;22.83;;
3453;SDS011;1741;51.294;8.608;2024-03-02T13:25:31;22.43;;;21.03;;
3453;SDS011;1741;51.294;8.608;2024-03-02T13:27:59;23.33;;;21.40;;
3453;SDS011;1741;51.294;8.608;2024-03-02T13:30:27;22.07;;;20.50;;
3453;SDS011;1741;51.294;8.608;2024-03-02T13:32:54;21.87;;;20.43;;
3453;SDS011;1741;51.294;8.608;2024-03-02T13:35:21;22.47;;;21.10;;
3453;SDS011;1741;51.294;8.608;2024-03-02T13:37:48;21.50;;;20.20;;
3453;SDS011;1741;51.294;8.608;2024-03-02T13:40:16;21.37;;;20.07;;
3453;SDS011;1741;51.294;8.608;2024-03-02T13:42:47;23.50;;;21.40;;
3453;SDS011;1741;51.294;8.608;2024-03-02T13:45:15;21.50;;;20.20;;
3453;SDS011;1741;51.294;8.608;2024-03-02T13:47:43;23.23;;;21.77;;
3453;SDS011;1741;51.294;8.608;2024-03-02T13:50:10;22.10;;;20.70;;
3453;SDS011;1741;51.294;8.608;2024-03-02T13:52:39;22.70;;;21.20;;
3453;SDS011;1741;51.294;8.608;2024-03-02T13:55:09;21.40;;;20.10;;
3453;SDS011;1741;51.294;8.608;2024-03-02T13:57:37;21.50;;;20.10;;
3453;SDS011;1741;51.294;8.608;2024-03-02T14:00:04;20.60;;;19.30;;
3453;SDS011;1741;51.294;8.608;2024-03-02T14:02:39;20.63;;;19.43;;
3453;SDS011;1741;51.294;8.608;2024-03-02T14:05:06;20.37;;;19.07;;
3453;SDS011;1741;51.294;8.608;2024-03-02T14:07:38;19.20;;;18.10;;
3453;SDS011;1741;51.294;8.608;2024-03-02T14:10:05;20.07;;;18.77;;
3453;SDS011;1741;51.294;8.608;2024-03-02T14:12:32;18.30;;;17.10;;
3453;SDS011;1741;51.294;8.608;2024-03-02T14:15:00;17.33;;;16.33;;
3453;SDS011;1741;51.294;8.608;2024-03-02T14:17:31;16.70;;;15.70;;
3453;SDS011;1741;51.294;8.608;2024-03-02T14:20:00;17.10;;;16.00;;
3453;SDS011;1741;51.294;8.608;2024-03-02T14:22:32;19.30;;;18.20;;
3453;SDS011;1741;51.294;8.608;2024-03-02T14:25:01;18.17;;;17.17;;
3453;SDS011;1741;51.294;8.608;2024-03-02T14:27:29;18.73;;;17.47;;
3453;SDS011;1741;51.294;8.608;2024-03-02T14:30:19;17.77;;;16.87;;
3453;SDS011;1741;51.294;8.608;2024-03-02T14:32:48;18.40;;;17.30;;
3453;SDS011;1741;51.294;8.608;2024-03-02T14:35:15;18.10;;;17.10;;
3453;SDS011;1741;51.294;8.608;2024-03-02T14:37:43;18.47;;;17.37;;
3453;SDS011;1741;51.294;8.608;2024-03-02T14:40:11;17.23;;;16.13;;
3453;SDS011;1741;51.294;8.608;2024-03-02T14:42:39;17.63;;;16.57;;
3453;SDS011;1741;51.294;8.608;2024-03-02T14:45:06;17.20;;;16.10;;
3453;SDS011;1741;51.294;8.608;2024-03-02T14:47:33;16.23;;;15.17;;
3453;SDS011;1741;51.294;8.608;2024-03-02T14:50:02;16.90;;;16.00;;
3453;SDS011;1741;51.294;8.608;2024-03-02T14:52:37;18.40;;;16.53;;
3453;SDS011;1741;51.294;8.608;2024-03-02T14:55:10;17.43;;;16.53;;
3453;SDS011;1741;51.294;8.608;2024-03-02T14:57:38;15.53;;;14.80;;
3453;SDS011;1741;51.294;8.608;2024-03-02T15:00:09;16.00;;;15.20;;
3453;SDS011;1741;51.294;8.608;2024-03-02T15:02:38;16.40;;;15.63;;
3453;SDS011;1741;51.294;8.608;2024-03-02T15:05:05;16.80;;;15.67;;
3453;SDS011;1741;51.294;8.608;2024-03-02T15:07:37;16.33;;;15.43;;
3453;SDS011;1741;51.294;8.608;2024-03-02T15:10:11;15.83;;;15.10;;